Time;durP1;ratioP1;P1;durP2;ratioP2;P2;SDS_P1;SDS_P2;PMS_P1;PMS_P2;Temp;Humidity;BMP_temperature;BMP_pressure;BME280_temperature;BME280_humidity;BME280_pressure;Samples;Min_cycle;Max_cycle;Signal;HPM_P1;HPM_P2
2022/04/02 00:02:45;;;;;;;9.40;8.57;;;4.10;99.90;;;;;;4902739;29;20464;-83
2022/04/02 00:06:02;;;;;;;8.47;7.33;;;4.10;99.90;;;;;;4879431;29;20594;-84
2022/04/02 00:09:08;;;;;;;9.00;8.20;;;3.90;99.90;;;;;;4896595;29;20563;-84
2022/04/02 00:12:18;;;;;;;10.90;8.20;;;4.10;99.90;;;;;;4897090;29;20459;-85
2022/04/02 00:18:42;;;;;;;8.47;7.77;;;4.10;99.90;;;;;;4897446;28;20444;-85
2022/04/02 01:00:21;;;;;;;8.67;7.87;;;4.30;99.90;;;;;;4924964;29;20497;-84
2022/04/02 01:07:32;;;;;;;;;;;;;;;;;;;;;
2022/04/02 01:10:29;;;;;;;;;;;;;;;;;;;;;
2022/04/02 01:13:52;;;;;;;8.60;7.50;;;4.10;99.90;;;;;;4876231;29;20445;-84
2022/04/02 01:20:58;;;;;;;9.60;8.70;;;4.10;99.90;;;;;;4869356;29;20448;-86
2022/04/02 01:24:06;;;;;;;8.60;7.70;;;4.10;99.90;;;;;;4843974;29;20914;-85
2022/04/02 01:27:44;;;;;;;9.47;8.23;;;4.20;99.90;;;;;;4812945;29;20793;-87
2022/04/02 01:30:43;;;;;;;9.13;8.03;;;4.30;99.90;;;;;;4801999;29;20574;-86
2022/04/02 01:33:52;;;;;;;10.00;9.00;;;4.20;99.90;;;;;;4757496;30;20481;-84
2022/04/02 01:37:02;;;;;;;10.47;8.80;;;3.90;99.90;;;;;;4765729;29;20482;-85
2022/04/02 01:44:27;;;;;;;12.10;10.50;;;3.90;99.90;;;;;;4753847;30;20514;-85
2022/04/02 01:51:10;;;;;;;11.10;10.00;;;4.10;99.90;;;;;;4833691;29;20494;-85
2022/04/02 01:57:51;;;;;;;9.73;8.83;;;4.10;99.90;;;;;;4886825;29;20464;-85
2022/04/02 02:03:56;;;;;;;9.73;8.73;;;3.90;99.90;;;;;;4912329;29;20453;-84
2022/04/02 02:07:11;;;;;;;9.30;7.40;;;4.20;99.90;;;;;;4926291;29;20491;-86
2022/04/02 02:10:17;;;;;;;;;;;;;;;;;;;;;
2022/04/02 02:13:23;;;;;;;8.37;7.57;;;4.00;99.90;;;;;;4841459;29;20534;-85
2022/04/02 02:16:36;;;;;;;9.40;8.50;;;3.90;99.90;;;;;;4823402;29;20580;-87
2022/04/02 02:20:12;;;;;;;10.37;8.30;;;3.90;99.90;;;;;;4869566;29;20451;-85
2022/04/02 02:23:25;;;;;;;9.60;8.70;;;4.00;99.90;;;;;;4804353;29;20529;-84
2022/04/02 02:38:28;;;;;;;11.83;10.57;;;4.00;99.90;;;;;;4851318;29;20954;-83
2022/04/02 02:41:32;;;;;;;11.27;9.53;;;4.10;99.90;;;;;;4849398;29;20467;-84
2022/04/02 02:45:21;;;;;;;;;;;;;;;;;;;;;
2022/04/02 02:48:47;;;;;;;12.03;10.13;;;3.90;99.90;;;;;;4926193;29;20558;-84
2022/04/02 02:59:10;;;;;;;;;;;;;;;;;;;;;
2022/04/02 03:02:16;;;;;;;12.03;9.10;;;3.90;99.90;;;;;;4956677;28;20457;-82
2022/04/02 03:05:13;;;;;;;11.17;9.83;;;4.00;99.90;;;;;;4872596;29;20544;-84
2022/04/02 03:08:08;;;;;;;;;;;;;;;;;;;;;
2022/04/02 03:11:12;;;;;;;9.77;8.73;;;3.70;99.90;;;;;;4767147;30;20450;-85
2022/04/02 03:25:21;;;;;;;8.70;7.90;;;3.60;99.90;;;;;;4759685;30;20461;-81
2022/04/02 03:28:46;;;;;;;9.37;7.70;;;3.70;99.90;;;;;;4757710;30;21916;-85
2022/04/02 03:31:59;;;;;;;8.40;7.07;;;3.70;99.90;;;;;;4774080;29;20983;-85
2022/04/02 03:35:29;;;;;;;6.53;5.80;;;3.70;99.90;;;;;;4761590;30;20480;-84
2022/04/02 03:38:45;;;;;;;7.80;6.43;;;4.00;99.90;;;;;;4736742;30;20463;-83
2022/04/02 03:41:43;;;;;;;6.70;6.00;;;4.00;99.90;;;;;;4742423;29;20529;-86
2022/04/02 03:44:52;;;;;;;6.17;5.57;;;4.00;99.90;;;;;;4823621;29;20447;-83
2022/04/02 03:48:29;;;;;;;8.53;5.60;;;4.10;99.90;;;;;;4844678;29;21079;-83
2022/04/02 03:51:28;;;;;;;6.60;5.70;;;4.00;99.90;;;;;;4873373;29;20490;-83
2022/04/02 03:58:10;;;;;;;7.03;4.70;;;3.90;99.90;;;;;;4863811;29;20472;-82
2022/04/02 04:01:38;;;;;;;5.67;5.03;;;3.90;99.90;;;;;;4864270;29;20468;-83
2022/04/02 04:05:43;;;;;;;6.07;5.20;;;3.90;99.90;;;;;;4841195;29;20850;-83
2022/04/02 04:08:45;;;;;;;4.67;4.17;;;4.10;99.90;;;;;;4797402;29;20498;-84
2022/04/02 04:12:24;;;;;;;;;;;;;;;;;;;;;
2022/04/02 04:15:13;;;;;;;7.30;5.27;;;4.00;99.90;;;;;;4839827;29;20500;-83
2022/04/02 04:18:48;;;;;;;5.50;4.23;;;4.10;99.90;;;;;;4868529;29;20434;-83
2022/04/02 04:21:59;;;;;;;4.60;4.20;;;4.00;99.90;;;;;;4870883;29;20987;-84
2022/04/02 04:25:15;;;;;;;5.70;3.37;;;4.20;99.90;;;;;;4863349;29;21085;-85
2022/04/02 04:27:48;;;;;;;5.30;3.70;;;4.00;99.90;;;;;;4882502;29;20482;-82
2022/04/02 04:30:40;;;;;;;4.30;3.90;;;4.00;99.90;;;;;;4827565;29;20551;-84
2022/04/02 04:33:45;;;;;;;3.90;3.50;;;3.80;99.90;;;;;;4816691;29;20494;-84
2022/04/02 04:36:36;;;;;;;4.00;3.20;;;3.80;99.90;;;;;;4813494;29;20497;-84
2022/04/02 04:43:52;;;;;;;6.50;3.80;;;4.10;99.90;;;;;;4844472;29;20449;-83
2022/04/02 04:47:43;;;;;;;2.77;2.50;;;4.20;99.90;;;;;;4817841;29;20489;-83
2022/04/02 04:54:44;;;;;;;3.60;2.50;;;4.00;99.50;;;;;;4755942;29;20471;-83
2022/04/02 04:57:46;;;;;;;4.30;2.60;;;4.20;99.00;;;;;;4788387;29;20472;-86
2022/04/02 05:07:50;;;;;;;2.87;2.63;;;4.00;98.90;;;;;;4775880;29;20483;-85
2022/04/02 05:10:50;;;;;;;3.13;2.83;;;4.20;98.40;;;;;;4768068;29;20826;-85
2022/04/02 05:13:21;;;;;;;2.50;2.23;;;4.10;97.80;;;;;;4762115;30;20991;-84
2022/04/02 05:16:40;;;;;;;2.67;2.47;;;4.20;98.40;;;;;;4806604;29;20529;-85
2022/04/02 05:19:32;;;;;;;6.40;1.87;;;4.00;98.50;;;;;;4848090;29;20533;-86
2022/04/02 05:22:16;;;;;;;2.43;2.20;;;4.10;98.20;;;;;;4850088;29;20458;-86
2022/04/02 05:25:34;;;;;;;2.33;2.00;;;4.30;97.40;;;;;;4843076;29;21202;-84
2022/04/02 05:28:30;;;;;;;2.40;2.20;;;4.20;97.10;;;;;;4821148;29;20489;-84
2022/04/02 05:35:16;;;;;;;4.30;2.50;;;4.30;96.40;;;;;;4778360;29;20485;-85
2022/04/02 05:38:44;;;;;;;3.97;2.70;;;4.20;96.90;;;;;;4776061;30;21278;-85
2022/04/02 05:41:34;;;;;;;3.20;2.07;;;4.10;97.10;;;;;;4767202;30;21997;-84
2022/04/02 05:44:40;;;;;;;5.80;2.50;;;4.10;97.30;;;;;;4800154;29;20474;-85
2022/04/02 05:48:27;;;;;;;;;;;;;;;;;;;;;
2022/04/02 06:01:53;;;;;;;2.73;2.53;;;3.90;98.80;;;;;;5002895;28;20570;-81
2022/04/02 06:07:39;;;;;;;2.33;2.13;;;3.90;99.30;;;;;;4985286;28;20501;-87
2022/04/02 06:11:01;;;;;;;2.77;2.17;;;3.80;99.70;;;;;;4958004;28;20534;-86
2022/04/02 06:18:11;;;;;;;2.80;2.60;;;4.20;98.60;;;;;;4980018;23;20491;-85
2022/04/02 06:24:29;;;;;;;2.37;2.17;;;4.00;98.10;;;;;;4973875;28;20516;-83
2022/04/02 06:27:13;;;;;;;2.60;2.40;;;4.30;98.00;;;;;;4988802;28;20506;-83
2022/04/02 06:30:30;;;;;;;2.83;2.47;;;4.20;97.40;;;;;;4941219;28;20462;-84
2022/04/02 06:33:39;;;;;;;2.37;2.10;;;4.00;97.80;;;;;;4981595;28;20498;-85
2022/04/02 06:36:51;;;;;;;2.60;2.40;;;4.00;98.00;;;;;;4984220;28;20512;-84
2022/04/02 06:39:53;;;;;;;2.63;2.27;;;4.00;98.00;;;;;;4979253;28;20493;-85
2022/04/02 06:42:44;;;;;;;2.77;2.00;;;4.20;97.50;;;;;;4985779;28;20471;-86
2022/04/02 06:46:14;;;;;;;2.33;2.20;;;4.30;97.10;;;;;;4914312;29;21375;-84
2022/04/02 06:49:29;;;;;;;2.20;1.73;;;4.40;96.70;;;;;;4830563;29;20545;-84
2022/04/02 06:53:48;;;;;;;;;;;;;;;;;;;;;
2022/04/02 06:57:16;;;;;;;2.90;2.00;;;4.60;94.80;;;;;;4923987;23;20894;-85
2022/04/02 07:00:34;;;;;;;1.90;1.80;;;4.60;94.70;;;;;;4886716;29;20484;-84
2022/04/02 07:08:19;;;;;;;2.67;2.47;;;4.60;93.60;;;;;;4827112;29;20571;-84
2022/04/02 07:12:08;;;;;;;3.40;2.73;;;4.50;94.70;;;;;;4865900;29;20918;-84
2022/04/02 08:01:34;;;;;;;3.67;2.43;;;5.20;92.80;;;;;;3397008;26;20466;-83
2022/04/02 08:04:47;;;;;;;2.77;2.57;;;5.50;92.90;;;;;;4986425;28;20542;-85
2022/04/02 08:08:13;;;;;;;4.87;2.20;;;5.50;92.10;;;;;;4921608;29;20489;-85
2022/04/02 08:11:43;;;;;;;;;;;;;;;;;;;;;
2022/04/02 08:36:31;;;;;;;2.83;2.50;;;5.70;91.10;;;;;;4995769;28;20802;-85
2022/04/02 08:44:09;;;;;;;;;;;;;;;;;;;;;
2022/04/02 08:53:19;;;;;;;;;;;;;;;;;;;;;
2022/04/02 09:03:58;;;;;;;3.50;2.90;;;6.00;89.00;;;;;;4950315;28;20846;-84
2022/04/02 09:07:39;;;;;;;;;;;;;;;;;;;;;
2022/04/02 09:11:16;;;;;;;3.47;2.67;;;5.70;87.80;;;;;;4941571;28;20492;-85
2022/04/02 09:18:39;;;;;;;;;;;;;;;;;;;;;
2022/04/02 09:29:55;;;;;;;3.00;2.80;;;5.80;88.80;;;;;;4968730;28;20514;-84
2022/04/02 09:33:24;;;;;;;4.93;2.70;;;5.80;89.00;;;;;;4966319;28;22036;-85
2022/04/02 09:54:21;;;;;;;2.70;2.50;;;6.20;84.90;;;;;;560765;26;20773;-84
2022/04/02 09:58:06;;;;;;;3.10;2.80;;;6.30;83.60;;;;;;4958043;28;20538;-82
2022/04/02 10:19:55;;;;;;;3.23;2.60;;;6.20;80.50;;;;;;4935697;28;21229;-85
2022/04/02 10:27:48;;;;;;;;;;;;;;;;;;;;;
2022/04/02 10:31:21;;;;;;;;;;;;;;;;;;;;;
2022/04/02 11:31:53;;;;;;;3.50;2.83;;;9.40;64.00;;;;;;4935913;28;20478;-85
2022/04/02 11:42:59;;;;;;;2.67;2.47;;;8.80;61.90;;;;;;4767628;30;20470;-85
2022/04/02 11:46:35;;;;;;;;;;;;;;;;;;;;;
2022/04/02 12:27:01;;;;;;;3.17;2.87;;;11.80;49.70;;;;;;6224519;22;20281;-85
2022/04/02 12:30:40;;;;;;;3.87;2.90;;;11.70;50.50;;;;;;6185208;23;21251;-84
2022/04/02 12:37:54;;;;;;;5.00;3.83;;;10.90;53.60;;;;;;6058478;23;20501;-88
2022/04/02 12:45:43;;;;;;;;;;;;;;;;;;;;;
2022/04/02 12:49:24;;;;;;;3.60;3.40;;;8.80;59.50;;;;;;6073251;23;20721;-86
2022/04/02 12:52:30;;;;;;;3.90;3.47;;;8.50;62.60;;;;;;6120320;23;20685;-85
2022/04/02 12:54:58;;;;;;;3.70;3.40;;;8.70;62.50;;;;;;6140210;23;20904;-86
2022/04/02 12:57:34;;;;;;;4.23;3.93;;;8.70;62.00;;;;;;6175957;23;20440;-86
2022/04/02 13:00:36;;;;;;;6.20;3.23;;;8.60;63.30;;;;;;6203018;23;20473;-84
2022/04/02 13:03:34;;;;;;;3.63;3.33;;;8.50;62.90;;;;;;6195036;23;20483;-84
2022/04/02 13:06:16;;;;;;;4.87;3.80;;;8.60;63.30;;;;;;6188138;23;20515;-84
2022/04/02 13:09:04;;;;;;;5.43;4.73;;;8.50;63.70;;;;;;6190698;23;20499;-85
2022/04/02 13:11:52;;;;;;;4.87;4.43;;;8.40;64.80;;;;;;6184912;23;20436;-83
2022/04/02 13:14:37;;;;;;;3.70;3.40;;;8.50;63.20;;;;;;6251421;22;20882;-85
2022/04/02 13:17:28;;;;;;;6.70;4.27;;;8.30;63.40;;;;;;6277451;22;20465;-85
2022/04/02 13:20:29;;;;;;;3.50;3.13;;;8.20;64.80;;;;;;6233755;22;20390;-83
2022/04/02 13:22:57;;;;;;;4.10;3.70;;;8.30;65.80;;;;;;6276100;22;20929;-85
2022/04/02 13:25:29;;;;;;;3.67;3.37;;;8.40;63.40;;;;;;6278422;22;20639;-84
2022/04/02 13:28:28;;;;;;;4.40;4.10;;;8.10;63.30;;;;;;6280854;22;20441;-84
2022/04/02 13:30:59;;;;;;;3.97;3.27;;;8.20;64.60;;;;;;6274027;22;20413;-84
2022/04/02 13:34:09;;;;;;;4.30;3.90;;;8.20;65.70;;;;;;6306565;22;20394;-84
2022/04/02 13:37:12;;;;;;;4.70;4.30;;;8.30;66.00;;;;;;6283924;22;20444;-85
2022/04/02 13:40:02;;;;;;;4.70;4.30;;;8.10;65.40;;;;;;6281194;22;20501;-85
2022/04/02 13:43:03;;;;;;;4.03;3.63;;;7.80;66.70;;;;;;6278303;22;20722;-84
2022/04/02 13:46:11;;;;;;;;;;;;;;;;;;;;;
2022/04/02 13:49:13;;;;;;;4.10;3.70;;;7.70;67.40;;;;;;6304015;22;20428;-85
2022/04/02 13:52:08;;;;;;;5.83;3.97;;;7.80;68.40;;;;;;6285191;22;20410;-85
2022/04/02 13:55:01;;;;;;;4.33;4.03;;;7.70;68.50;;;;;;6285285;22;20455;-85
2022/04/02 13:58:10;;;;;;;5.07;4.60;;;7.70;70.40;;;;;;6283418;22;20382;-84
2022/04/02 14:00:46;;;;;;;5.67;4.87;;;7.50;71.80;;;;;;6275797;22;20431;-84
2022/04/02 14:03:24;;;;;;;5.30;4.80;;;7.60;73.70;;;;;;6271380;22;20449;-85
2022/04/02 14:06:14;;;;;;;5.13;4.63;;;7.50;75.00;;;;;;6298021;22;20419;-82
2022/04/02 14:09:19;;;;;;;6.83;5.30;;;7.70;75.00;;;;;;6263000;22;20413;-83
2022/04/02 14:12:13;;;;;;;7.13;4.43;;;7.40;75.90;;;;;;6284306;22;20768;-81
2022/04/02 14:15:14;;;;;;;5.27;4.80;;;7.30;76.70;;;;;;6302877;22;20414;-83
2022/04/02 14:18:02;;;;;;;5.07;4.57;;;7.30;77.20;;;;;;6298860;22;20453;-83
2022/04/02 14:20:43;;;;;;;6.20;4.70;;;7.30;78.50;;;;;;6270601;22;20673;-83
2022/04/02 14:23:57;;;;;;;5.60;5.10;;;7.30;79.20;;;;;;6269564;22;20444;-85
2022/04/02 14:27:16;;;;;;;6.37;5.77;;;7.30;80.80;;;;;;6258228;22;20436;-85
2022/04/02 14:29:52;;;;;;;5.90;4.50;;;7.30;80.50;;;;;;6297021;22;20444;-84
2022/04/02 14:32:49;;;;;;;6.40;5.10;;;7.20;79.40;;;;;;6296722;22;20432;-84
2022/04/02 14:36:10;;;;;;;5.20;4.70;;;7.20;79.30;;;;;;6261513;22;21077;-83
2022/04/02 14:39:16;;;;;;;4.60;4.20;;;7.30;79.50;;;;;;6271763;22;20409;-83
2022/04/02 14:42:12;;;;;;;5.47;5.03;;;7.30;79.10;;;;;;6270275;22;20410;-84
2022/04/02 14:45:32;;;;;;;5.07;4.60;;;7.00;79.30;;;;;;6274077;22;20496;-82
2022/04/02 14:48:26;;;;;;;5.10;4.63;;;7.10;80.00;;;;;;6300074;22;20406;-84
2022/04/02 14:51:49;;;;;;;3.80;3.50;;;7.20;80.50;;;;;;6277901;22;20433;-84
2022/04/02 14:54:43;;;;;;;4.47;3.60;;;7.00;79.70;;;;;;6274476;22;20595;-85
2022/04/02 14:57:49;;;;;;;3.03;2.77;;;7.10;79.60;;;;;;6271992;22;20437;-84
2022/04/02 15:00:43;;;;;;;3.80;3.50;;;7.20;76.70;;;;;;6296477;22;20476;-83
2022/04/02 15:03:55;;;;;;;3.27;2.97;;;7.10;76.40;;;;;;6271144;22;20441;-83
2022/04/02 15:07:20;;;;;;;3.13;2.77;;;7.10;76.10;;;;;;6269325;22;20746;-84
2022/04/02 15:10:54;;;;;;;3.20;2.90;;;7.10;76.90;;;;;;6272376;22;20406;-84
2022/04/02 15:16:33;;;;;;;3.40;3.10;;;7.60;74.80;;;;;;6141338;23;20470;-83
2022/04/02 15:19:27;;;;;;;3.43;3.13;;;7.60;74.10;;;;;;6274766;22;20902;-84
2022/04/02 15:22:13;;;;;;;5.13;4.63;;;7.50;72.80;;;;;;6276535;22;20982;-82
2022/04/02 15:25:25;;;;;;;3.57;3.27;;;7.60;73.00;;;;;;6275621;22;20437;-84
2022/04/02 15:28:41;;;;;;;3.20;2.70;;;7.60;72.20;;;;;;6275534;22;20409;-83
2022/04/02 15:32:25;;;;;;;4.37;3.30;;;7.60;71.90;;;;;;6274459;22;20366;-84
2022/04/02 15:35:25;;;;;;;4.10;3.70;;;7.60;72.50;;;;;;6275231;22;20429;-84
2022/04/02 15:38:34;;;;;;;3.20;2.97;;;7.70;71.60;;;;;;6272644;22;20468;-83
2022/04/02 15:41:55;;;;;;;3.83;3.53;;;7.70;71.90;;;;;;6274254;22;20418;-84
2022/04/02 15:44:45;;;;;;;3.50;3.20;;;7.60;70.90;;;;;;6166660;22;20446;-84
2022/04/02 15:47:47;;;;;;;3.83;3.53;;;7.60;70.20;;;;;;6280396;22;20453;-83
2022/04/02 15:50:30;;;;;;;5.00;2.80;;;7.90;69.20;;;;;;6309147;22;20444;-84
2022/04/02 15:53:30;;;;;;;4.00;3.60;;;7.80;68.20;;;;;;6282826;22;20421;-83
2022/04/02 15:56:16;;;;;;;3.37;3.07;;;8.00;66.40;;;;;;6284594;22;20720;-81
2022/04/02 15:59:14;;;;;;;3.60;3.30;;;7.90;66.40;;;;;;6310474;22;20410;-84
2022/04/02 16:01:54;;;;;;;3.77;3.47;;;8.20;67.50;;;;;;6270650;22;20421;-85
2022/04/02 17:53:23;;;;;;;;;;;;;;;;;;;;;
2022/04/02 18:11:25;;;;;;;2.97;2.67;;;7.50;63.90;;;;;;6275206;22;20530;-83
2022/04/02 18:14:15;;;;;;;;;;;;;;;;;;;;;
2022/04/02 18:18:07;;;;;;;4.83;3.47;;;7.60;63.20;;;;;;6181856;23;20424;-87
2022/04/02 19:53:59;;;;;;;3.60;3.40;;;7.50;58.70;;;;;;6173912;23;20409;-85
2022/04/02 20:37:43;;;;;;;5.00;4.33;;;6.80;62.80;;;;;;6319185;22;20473;-84
2022/04/02 20:40:27;;;;;;;5.17;4.43;;;7.00;62.90;;;;;;6290654;22;20402;-84
2022/04/02 20:43:28;;;;;;;5.47;4.63;;;6.90;63.10;;;;;;6167720;23;20406;-87
2022/04/02 20:46:47;;;;;;;6.17;4.30;;;6.70;63.90;;;;;;6160135;23;20425;-83
2022/04/02 20:50:23;;;;;;;4.67;4.27;;;6.60;64.20;;;;;;6004189;23;20398;-85
2022/04/02 20:53:32;;;;;;;4.80;4.40;;;6.50;65.20;;;;;;6045277;23;20450;-85
2022/04/02 21:21:46;;;;;;;;;;;;;;;;;;;;;
2022/04/02 21:29:00;;;;;;;5.13;4.50;;;7.00;64.20;;;;;;6240077;23;20906;-85
2022/04/02 21:31:46;;;;;;;5.37;4.80;;;6.70;64.40;;;;;;6226791;23;20412;-84
2022/04/02 21:41:11;;;;;;;5.50;4.80;;;6.60;65.80;;;;;;6268491;22;20513;-83
2022/04/02 21:43:56;;;;;;;4.03;3.43;;;6.60;65.80;;;;;;6247115;22;20439;-85
2022/04/02 21:46:23;;;;;;;3.90;3.50;;;6.50;66.10;;;;;;6270612;22;20423;-83
2022/04/02 21:48:55;;;;;;;4.20;3.80;;;6.50;66.30;;;;;;6241455;22;20400;-84
2022/04/02 21:51:34;;;;;;;3.77;3.40;;;6.50;66.40;;;;;;6243986;22;20851;-85
2022/04/02 21:54:15;;;;;;;3.90;3.30;;;6.50;66.10;;;;;;6244725;22;20407;-87
2022/04/02 21:57:04;;;;;;;4.97;3.80;;;6.60;67.50;;;;;;6245426;22;20446;-85
2022/04/02 21:59:45;;;;;;;4.00;3.60;;;6.60;66.60;;;;;;6243693;22;20399;-86
2022/04/02 22:02:29;;;;;;;4.30;3.57;;;6.40;66.80;;;;;;6243825;22;20414;-85
2022/04/02 22:05:26;;;;;;;6.53;4.13;;;6.40;67.50;;;;;;6262140;22;20538;-85
2022/04/02 22:08:40;;;;;;;4.37;3.90;;;6.40;67.70;;;;;;6268508;22;21078;-85
2022/04/02 22:11:20;;;;;;;5.20;3.80;;;6.50;68.40;;;;;;6185795;22;20415;-85
2022/04/02 22:13:56;;;;;;;3.53;3.13;;;6.60;67.70;;;;;;6245958;22;20415;-85
2022/04/02 22:16:45;;;;;;;4.50;3.80;;;6.40;68.60;;;;;;6246438;22;20441;-84
2022/04/02 22:19:24;;;;;;;4.20;3.80;;;6.50;69.00;;;;;;6243322;22;20810;-84
2022/04/02 22:22:20;;;;;;;5.07;3.53;;;6.50;68.50;;;;;;6215234;23;20880;-84
2022/04/02 22:24:54;;;;;;;5.67;3.77;;;6.60;68.00;;;;;;6215776;23;20470;-82
2022/04/02 22:27:47;;;;;;;4.90;3.90;;;6.50;68.00;;;;;;6240794;23;20425;-85
2022/04/02 22:30:42;;;;;;;4.10;3.70;;;6.20;68.50;;;;;;6210293;23;20488;-86
2022/04/02 22:33:21;;;;;;;4.40;3.47;;;6.00;69.90;;;;;;6213146;23;20448;-86
2022/04/02 22:35:55;;;;;;;4.07;3.77;;;6.20;70.60;;;;;;6214936;23;20444;-85
2022/04/02 22:38:42;;;;;;;5.10;3.70;;;6.10;69.60;;;;;;6218379;23;20451;-85
2022/04/02 22:41:26;;;;;;;3.87;3.53;;;6.40;68.80;;;;;;6223898;23;20926;-84
2022/04/02 22:44:14;;;;;;;4.43;3.73;;;6.30;68.50;;;;;;6218271;23;20534;-84
2022/04/02 22:47:21;;;;;;;;;;;;;;;;;;;;;
2022/04/02 22:53:33;;;;;;;4.20;3.80;;;6.20;69.60;;;;;;6240431;23;20435;-87
2022/04/02 22:56:25;;;;;;;3.97;3.63;;;6.10;70.50;;;;;;6216108;23;20434;-85
2022/04/02 22:59:03;;;;;;;3.70;3.40;;;6.30;70.70;;;;;;6212652;23;20500;-85
2022/04/02 23:01:52;;;;;;;3.67;3.03;;;6.40;70.20;;;;;;6215401;23;20929;-85
2022/04/02 23:04:50;;;;;;;3.57;3.27;;;6.40;69.30;;;;;;6196986;23;20964;-84
2022/04/02 23:07:48;;;;;;;4.00;3.30;;;6.30;69.40;;;;;;6215157;23;20494;-87
2022/04/02 23:10:32;;;;;;;4.30;3.90;;;6.00;69.70;;;;;;6238919;23;20444;-85
2022/04/02 23:13:17;;;;;;;4.03;3.50;;;6.00;70.00;;;;;;6217347;23;20416;-84
2022/04/02 23:16:07;;;;;;;5.20;3.90;;;6.20;69.60;;;;;;6235772;23;20428;-84
2022/04/02 23:18:41;;;;;;;4.23;3.70;;;6.00;69.40;;;;;;6211641;23;20515;-85
2022/04/02 23:21:53;;;;;;;3.13;2.93;;;6.10;70.80;;;;;;6214122;23;20411;-84
2022/04/02 23:24:36;;;;;;;4.27;3.67;;;6.10;70.60;;;;;;6215544;23;20527;-83
2022/04/02 23:27:36;;;;;;;3.30;3.00;;;6.20;69.00;;;;;;6222660;23;20535;-84
2022/04/02 23:30:25;;;;;;;2.90;2.60;;;6.20;69.00;;;;;;6218047;23;20455;-84
2022/04/02 23:36:41;;;;;;;3.03;2.73;;;6.10;70.10;;;;;;6090245;23;20524;-83
2022/04/02 23:39:33;;;;;;;3.67;3.37;;;5.90;70.30;;;;;;6038724;23;20405;-85
2022/04/02 23:42:14;;;;;;;3.43;2.80;;;6.00;70.60;;;;;;6090915;23;20425;-84
2022/04/02 23:45:01;;;;;;;3.00;2.60;;;6.00;71.60;;;;;;6090625;23;20445;-86
2022/04/02 23:48:03;;;;;;;3.17;2.93;;;6.00;71.70;;;;;;6208902;23;20453;-85
2022/04/02 23:50:49;;;;;;;3.37;3.07;;;6.00;72.20;;;;;;6241341;23;20419;-84
2022/04/02 23:53:41;;;;;;;3.47;3.17;;;5.90;73.00;;;;;;6218991;23;21134;-84
2022/04/02 23:56:26;;;;;;;3.13;2.83;;;5.70;73.20;;;;;;6211261;23;20436;-83
2022/04/02 23:58:53;;;;;;;3.00;2.70;;;5.70;73.50;;;;;;6187779;23;20463;-85
